Snav Antares — IINQ — position and weather

sailwx.info

Track history (hours):
 
Tides and Currents Weather Stations Pressure Air Temp Water Temp Dewpoint Dewpoint Depression Visibility Wind Speed Wind Dir Waves Ship Positions

Snav Antares

Last reported at 2018-Feb-05 12:14 UTC. Time now 2018-Feb-19 02:17 UTC.
Position N 40°42' E 014°16'.
Warning: this ship's position is 13 days out of date.

Length 42 m; draft 1.6 m.

Type: Passenger vessel. MMSI: 247058900.

Date/timePositionNaut miles runAvg speedWind from/ knotsBaromVisibWave heightAir tempDewpointWater temp
2018-Feb-05 12:14N 40°42' E 014°16'5 6.1
2018-Feb-05 11:23N 40°37' E 014°16'5 4.1
2018-Feb-05 10:03N 40°43' E 014°16'123.8
2018-Feb-05 10:00N 40°42' E 014°16'4 5.5
2018-Feb-05 09:14N 40°37' E 014°15'6 3.9
2018-Feb-05 07:43N 40°43' E 014°16'422.0
2018-Feb-05 07:30N 40°39' E 014°15'2 2.3
2018-Feb-05 06:49N 40°37' E 014°15'2 0.1
2018-Feb-04 14:23N 40°37' E 014°17'6 3.2
2018-Feb-04 12:35N 40°43' E 014°17'221.3
2018-Feb-04 12:30N 40°41' E 014°17'4 5.2
2018-Feb-04 11:43N 40°37' E 014°16'  
2018-Feb-01 12:11N 40°43' E 014°16'421.0
2018-Feb-01 12:00N 40°39' E 014°16'3 1.0
2018-Feb-01 08:38N 40°43' E 014°16'422.5
2018-Feb-01 08:29N 40°39' E 014°16'2 0.1
2018-Jan-31 18:54N 40°37' E 014°15'6 4.9
2018-Jan-31 17:39N 40°43' E 014°16'424.5
2018-Jan-31 17:29N 40°40' E 014°16'2 1.9
2018-Jan-31 16:11N 40°37' E 014°16'3 0.9
2018-Jan-31 13:00N 40°40' E 014°16'3 4.2
2018-Jan-31 12:19N 40°37' E 014°16'6 1.6
2018-Jan-31 08:36N 40°43' E 014°16'224.8
2018-Jan-31 08:30N 40°40' E 014°16'3 4.4
2018-Jan-31 07:44N 40°37' E 014°15'0 0.0
2018-Jan-30 18:53N 40°37' E 014°15'6 5.0
2018-Jan-30 17:39N 40°43' E 014°16'323.1
2018-Jan-30 17:30N 40°40' E 014°16'2 1.8
2018-Jan-30 16:11N 40°37' E 014°16'6 1.8
2018-Jan-30 13:07N 40°43' E 014°17'323.4
2018-Jan-30 13:00N 40°40' E 014°16'3 3.8
2018-Jan-30 12:20N 40°37' E 014°16'5 1.3
2018-Jan-30 08:40N 40°42' E 014°18'423.8
2018-Jan-30 08:30N 40°39' E 014°16'1 2.0
2018-Jan-30 07:44N 40°37' E 014°16'0 0.0
2018-Jan-29 18:52N 40°37' E 014°16'6 4.5
2018-Jan-29 17:36N 40°43' E 014°16'324.3
2018-Jan-29 17:30N 40°40' E 014°16'3 1.9
2018-Jan-29 16:07N 40°38' E 014°16'5 1.7
2018-Jan-29 13:06N 40°43' E 014°16'325.2
2018-Jan-29 13:00N 40°40' E 014°16'3 4.6
2018-Jan-29 12:16N 40°37' E 014°16'5 1.4
2018-Jan-29 08:37N 40°42' E 014°18'322.4
2018-Jan-29 08:29N 40°39' E 014°17'2 3.1
2018-Jan-29 07:43N 40°37' E 014°16'0 0.0
2018-Jan-28 18:53N 40°37' E 014°16'6 4.6
2018-Jan-28 17:37N 40°43' E 014°17'324.7
2018-Jan-28 17:30N 40°41' E 014°16'3 2.4
2018-Jan-28 16:07N 40°37' E 014°17'7 2.2
2018-Jan-28 13:08N 40°44' E 014°17'325.2
2018-Jan-28 13:00N 40°41' E 014°16'3 4.3
2018-Jan-28 12:16N 40°37' E 014°16'6 1.6
2018-Jan-28 08:37N 40°43' E 014°16'324.1
2018-Jan-28 08:30N 40°40' E 014°15'3 3.4
2018-Jan-28 07:42N 40°37' E 014°16'1 0.1
2018-Jan-27 18:52N 40°38' E 014°17'6 4.6
2018-Jan-27 17:38N 40°43' E 014°17'323.1
2018-Jan-27 17:30N 40°40' E 014°16'3 1.8
2018-Jan-27 16:07N 40°38' E 014°17'6 1.9
2018-Jan-27 13:10N 40°43' E 014°16'424.3
2018-Jan-27 13:00N 40°39' E 014°15'2 2.6
2018-Jan-27 12:17N 40°38' E 014°17'6 1.7
2018-Jan-27 08:41N 40°44' E 014°16'423.1
2018-Jan-27 08:30N 40°40' E 014°15'3 3.3
2018-Jan-27 07:44N 40°38' E 014°16'7 5.1
2018-Jan-27 06:23N 40°45' E 014°16'7 0.6
2018-Jan-26 18:56N 40°37' E 014°16'7 5.4
2018-Jan-26 17:42N 40°44' E 014°16'522.4
2018-Jan-26 17:30N 40°40' E 014°16'2 2.0
2018-Jan-26 16:15N 40°37' E 014°15'6 1.8
2018-Jan-26 13:08N 40°43' E 014°17'323.7
2018-Jan-26 13:00N 40°39' E 014°16'2 3.6
2018-Jan-26 12:19N 40°37' E 014°15'  
Track history (hours):
 
Tides and Currents Weather Stations Pressure Air Temp Water Temp Dewpoint Dewpoint Depression Visibility Wind Speed Wind Dir Waves Ship Positions

Snav Antares

Last reported at 2018-Feb-05 12:14 UTC. Time now 2018-Feb-19 02:17 UTC.
Position N 40°42' E 014°16'.
Warning: this ship's position is 13 days out of date.

Length 42 m; draft 1.6 m.

Type: Passenger vessel. MMSI: 247058900.

Date/timePositionNaut miles runAvg speedWind from/ knotsBaromVisibWave heightAir tempDewpointWater temp
2018-Feb-05 12:14N 40°42' E 014°16'5 6.1
2018-Feb-05 11:23N 40°37' E 014°16'5 4.1
2018-Feb-05 10:03N 40°43' E 014°16'123.8
2018-Feb-05 10:00N 40°42' E 014°16'4 5.5
2018-Feb-05 09:14N 40°37' E 014°15'6 3.9
2018-Feb-05 07:43N 40°43' E 014°16'422.0
2018-Feb-05 07:30N 40°39' E 014°15'2 2.3
2018-Feb-05 06:49N 40°37' E 014°15'2 0.1
2018-Feb-04 14:23N 40°37' E 014°17'6 3.2
2018-Feb-04 12:35N 40°43' E 014°17'221.3
2018-Feb-04 12:30N 40°41' E 014°17'4 5.2
2018-Feb-04 11:43N 40°37' E 014°16'  
2018-Feb-01 12:11N 40°43' E 014°16'421.0
2018-Feb-01 12:00N 40°39' E 014°16'3 1.0
2018-Feb-01 08:38N 40°43' E 014°16'422.5
2018-Feb-01 08:29N 40°39' E 014°16'2 0.1
2018-Jan-31 18:54N 40°37' E 014°15'6 4.9
2018-Jan-31 17:39N 40°43' E 014°16'424.5
2018-Jan-31 17:29N 40°40' E 014°16'2 1.9
2018-Jan-31 16:11N 40°37' E 014°16'3 0.9
2018-Jan-31 13:00N 40°40' E 014°16'3 4.2
2018-Jan-31 12:19N 40°37' E 014°16'6 1.6
2018-Jan-31 08:36N 40°43' E 014°16'224.8
2018-Jan-31 08:30N 40°40' E 014°16'3 4.4
2018-Jan-31 07:44N 40°37' E 014°15'0 0.0
2018-Jan-30 18:53N 40°37' E 014°15'6 5.0
2018-Jan-30 17:39N 40°43' E 014°16'323.1
2018-Jan-30 17:30N 40°40' E 014°16'2 1.8
2018-Jan-30 16:11N 40°37' E 014°16'6 1.8
2018-Jan-30 13:07N 40°43' E 014°17'323.4
2018-Jan-30 13:00N 40°40' E 014°16'3 3.8
2018-Jan-30 12:20N 40°37' E 014°16'5 1.3
2018-Jan-30 08:40N 40°42' E 014°18'423.8
2018-Jan-30 08:30N 40°39' E 014°16'1 2.0
2018-Jan-30 07:44N 40°37' E 014°16'0 0.0
2018-Jan-29 18:52N 40°37' E 014°16'6 4.5
2018-Jan-29 17:36N 40°43' E 014°16'324.3
2018-Jan-29 17:30N 40°40' E 014°16'3 1.9
2018-Jan-29 16:07N 40°38' E 014°16'5 1.7
2018-Jan-29 13:06N 40°43' E 014°16'325.2
2018-Jan-29 13:00N 40°40' E 014°16'3 4.6
2018-Jan-29 12:16N 40°37' E 014°16'5 1.4
2018-Jan-29 08:37N 40°42' E 014°18'322.4
2018-Jan-29 08:29N 40°39' E 014°17'2 3.1
2018-Jan-29 07:43N 40°37' E 014°16'0 0.0
2018-Jan-28 18:53N 40°37' E 014°16'6 4.6
2018-Jan-28 17:37N 40°43' E 014°17'324.7
2018-Jan-28 17:30N 40°41' E 014°16'3 2.4
2018-Jan-28 16:07N 40°37' E 014°17'7 2.2
2018-Jan-28 13:08N 40°44' E 014°17'325.2
2018-Jan-28 13:00N 40°41' E 014°16'3 4.3
2018-Jan-28 12:16N 40°37' E 014°16'6 1.6
2018-Jan-28 08:37N 40°43' E 014°16'324.1
2018-Jan-28 08:30N 40°40' E 014°15'3 3.4
2018-Jan-28 07:42N 40°37' E 014°16'1 0.1
2018-Jan-27 18:52N 40°38' E 014°17'6 4.6
2018-Jan-27 17:38N 40°43' E 014°17'323.1
2018-Jan-27 17:30N 40°40' E 014°16'3 1.8
2018-Jan-27 16:07N 40°38' E 014°17'6 1.9
2018-Jan-27 13:10N 40°43' E 014°16'424.3
2018-Jan-27 13:00N 40°39' E 014°15'2 2.6
2018-Jan-27 12:17N 40°38' E 014°17'6 1.7
2018-Jan-27 08:41N 40°44' E 014°16'423.1
2018-Jan-27 08:30N 40°40' E 014°15'3 3.3
2018-Jan-27 07:44N 40°38' E 014°16'7 5.1
2018-Jan-27 06:23N 40°45' E 014°16'7 0.6
2018-Jan-26 18:56N 40°37' E 014°16'7 5.4
2018-Jan-26 17:42N 40°44' E 014°16'522.4
2018-Jan-26 17:30N 40°40' E 014°16'2 2.0
2018-Jan-26 16:15N 40°37' E 014°15'6 1.8
2018-Jan-26 13:08N 40°43' E 014°17'323.7
2018-Jan-26 13:00N 40°39' E 014°16'2 3.6
2018-Jan-26 12:19N 40°37' E 014°15'  

Dump ship's entire track history